createdAt,value
2018-03-08T00:00:42.567Z,5.70
2018-03-08T00:03:10.034Z,5.70
2018-03-08T00:05:37.522Z,5.60
2018-03-08T00:08:05.096Z,5.70
2018-03-08T00:10:32.552Z,5.70
2018-03-08T00:13:00.016Z,5.80
2018-03-08T00:15:27.496Z,5.70
2018-03-08T00:17:54.967Z,5.70
2018-03-08T00:20:22.439Z,5.80
2018-03-08T00:22:49.920Z,5.70
2018-03-08T00:25:17.380Z,5.60
2018-03-08T00:27:44.844Z,5.50
2018-03-08T00:30:12.303Z,5.50
2018-03-08T00:32:39.759Z,5.50
2018-03-08T00:35:07.256Z,5.40
2018-03-08T00:37:34.717Z,5.40
2018-03-08T00:40:02.196Z,5.40
2018-03-08T00:42:29.769Z,5.40
2018-03-08T00:44:57.332Z,5.40
2018-03-08T00:47:24.809Z,5.40
2018-03-08T00:49:52.279Z,5.40
2018-03-08T00:52:19.856Z,5.40
2018-03-08T00:54:47.311Z,5.40
2018-03-08T00:57:14.776Z,5.30
2018-03-08T00:59:42.240Z,5.30
2018-03-08T01:02:09.728Z,5.20
2018-03-08T01:04:37.207Z,5.20
2018-03-08T01:07:04.672Z,5.10
2018-03-08T01:09:32.128Z,5.00
2018-03-08T01:11:59.591Z,5.00
2018-03-08T01:14:27.053Z,5.00
2018-03-08T01:16:54.520Z,5.00
2018-03-08T01:19:21.984Z,5.00
2018-03-08T01:21:49.461Z,5.00
2018-03-08T01:24:16.927Z,5.10
2018-03-08T01:26:44.394Z,5.00
2018-03-08T01:29:11.896Z,5.10
2018-03-08T01:31:39.356Z,5.10
2018-03-08T01:34:06.824Z,5.10
2018-03-08T01:36:34.292Z,5.10
2018-03-08T01:39:01.752Z,5.10
2018-03-08T01:41:29.215Z,5.10
2018-03-08T01:43:56.709Z,5.10
2018-03-08T01:46:24.188Z,5.10
2018-03-08T01:48:51.748Z,5.00
2018-03-08T01:51:19.220Z,5.00
2018-03-08T01:53:46.796Z,5.10
2018-03-08T01:56:14.371Z,5.10
2018-03-08T01:58:41.936Z,5.10
2018-03-08T02:01:09.404Z,5.00
2018-03-08T02:03:36.976Z,5.10
2018-03-08T02:06:04.437Z,5.10
2018-03-08T02:08:31.911Z,5.00
2018-03-08T02:10:59.376Z,5.10
2018-03-08T02:13:26.836Z,5.10
2018-03-08T02:15:54.304Z,5.10
2018-03-08T02:18:21.773Z,5.20
2018-03-08T02:20:49.281Z,5.20
2018-03-08T02:23:16.836Z,5.10
2018-03-08T02:25:44.292Z,5.20
2018-03-08T02:28:11.756Z,5.20
2018-03-08T02:30:39.241Z,5.20
2018-03-08T02:33:06.696Z,5.20
2018-03-08T02:35:34.146Z,5.20
2018-03-08T02:38:01.613Z,5.20
2018-03-08T02:40:29.116Z,5.20
2018-03-08T02:42:56.594Z,5.20
2018-03-08T02:45:24.057Z,5.20
2018-03-08T02:47:51.523Z,5.20
2018-03-08T02:50:18.980Z,5.30
2018-03-08T02:52:46.448Z,5.30
2018-03-08T02:55:13.908Z,5.30
2018-03-08T02:57:41.384Z,5.30
2018-03-08T03:00:08.876Z,5.40
2018-03-08T03:02:36.329Z,5.40
2018-03-08T03:05:03.797Z,5.40
2018-03-08T03:07:31.260Z,5.40
2018-03-08T03:09:58.748Z,5.40
2018-03-08T03:12:26.203Z,5.50
2018-03-08T03:14:53.667Z,5.50
2018-03-08T03:17:21.124Z,5.50
2018-03-08T03:19:48.644Z,5.50
2018-03-08T03:22:16.200Z,5.50
2018-03-08T03:24:43.660Z,5.50
2018-03-08T03:27:11.123Z,5.50
2018-03-08T03:29:38.611Z,5.50
2018-03-08T03:32:06.102Z,5.50
2018-03-08T03:34:33.568Z,5.50
2018-03-08T03:37:01.027Z,5.50
2018-03-08T03:39:28.485Z,5.50
2018-03-08T03:41:55.960Z,5.60
2018-03-08T03:44:23.415Z,5.50
2018-03-08T03:46:50.871Z,5.50
2018-03-08T03:49:18.339Z,5.50
2018-03-08T03:51:45.795Z,5.50
2018-03-08T03:54:13.516Z,5.60
2018-03-08T03:56:41.084Z,5.60
2018-03-08T03:59:08.546Z,5.60
2018-03-08T04:01:36.000Z,5.60
2018-03-08T04:04:03.481Z,5.60
2018-03-08T04:06:30.940Z,5.50
2018-03-08T04:08:58.395Z,5.60
2018-03-08T04:11:25.865Z,5.50
2018-03-08T04:13:53.328Z,5.60
2018-03-08T04:16:20.840Z,5.60
2018-03-08T04:18:48.413Z,5.50
2018-03-08T04:21:15.864Z,5.50
2018-03-08T04:23:43.324Z,5.50
2018-03-08T04:26:10.796Z,5.50
2018-03-08T04:28:38.252Z,5.40
2018-03-08T04:31:05.756Z,5.40
2018-03-08T04:33:33.224Z,5.30
2018-03-08T04:36:00.696Z,5.40
2018-03-08T04:38:28.177Z,5.40
2018-03-08T04:40:55.645Z,5.50
2018-03-08T04:43:23.215Z,5.50
2018-03-08T04:45:50.672Z,5.60
2018-03-08T04:48:18.132Z,5.60
2018-03-08T04:50:45.608Z,5.60
2018-03-08T04:53:13.088Z,5.60
2018-03-08T04:55:40.548Z,5.60
2018-03-08T04:58:08.028Z,5.60
2018-03-08T05:00:35.496Z,5.60
2018-03-08T05:03:02.981Z,5.70
2018-03-08T05:05:30.452Z,5.70
2018-03-08T05:07:58.013Z,5.60
2018-03-08T05:10:25.467Z,5.60
2018-03-08T05:12:54.550Z,5.50
2018-03-08T05:15:22.099Z,5.50
2018-03-08T05:17:50.344Z,5.40
2018-03-08T05:20:17.915Z,5.40
2018-03-08T05:22:45.385Z,5.40
2018-03-08T05:25:12.838Z,5.40
2018-03-08T05:27:40.302Z,5.40
2018-03-08T05:30:07.792Z,5.40
2018-03-08T05:32:35.261Z,5.30
2018-03-08T05:35:02.727Z,5.30
2018-03-08T05:37:30.304Z,5.30
2018-03-08T05:39:57.756Z,5.40
2018-03-08T05:42:25.217Z,5.40
2018-03-08T05:44:52.685Z,5.40
2018-03-08T05:47:20.146Z,5.40
2018-03-08T05:49:47.617Z,5.40
2018-03-08T05:52:15.064Z,5.30
2018-03-08T05:54:42.530Z,5.40
2018-03-08T05:57:10.880Z,5.40
2018-03-08T05:59:38.345Z,5.40
2018-03-08T06:02:05.813Z,5.40
2018-03-08T06:04:34.047Z,5.40
2018-03-08T06:07:02.276Z,5.40
2018-03-08T06:09:29.741Z,5.40
2018-03-08T06:11:57.238Z,5.40
2018-03-08T06:14:24.700Z,5.50
2018-03-08T06:16:52.183Z,5.50
2018-03-08T06:19:19.797Z,5.50
2018-03-08T06:21:47.313Z,5.50
2018-03-08T06:24:14.843Z,5.60
2018-03-08T06:26:42.353Z,5.60
2018-03-08T06:29:09.918Z,5.60
2018-03-08T06:31:37.400Z,5.50
2018-03-08T06:34:04.872Z,5.60
2018-03-08T06:36:32.333Z,5.60
2018-03-08T06:38:59.856Z,5.50
2018-03-08T06:41:27.372Z,5.50
2018-03-08T06:43:54.841Z,5.50
2018-03-08T06:46:22.419Z,5.40
2018-03-08T06:48:49.943Z,5.40
2018-03-08T06:51:17.406Z,5.40
2018-03-08T06:53:45.646Z,5.20
2018-03-08T06:56:13.097Z,5.20
2018-03-08T06:58:40.695Z,5.10
2018-03-08T07:01:08.160Z,5.10
2018-03-08T07:03:35.619Z,5.00
2018-03-08T07:06:03.096Z,5.00
2018-03-08T07:08:30.552Z,4.90
2018-03-08T07:10:58.021Z,4.90
2018-03-08T07:13:25.472Z,4.90
2018-03-08T07:15:52.976Z,4.90
2018-03-08T07:18:20.440Z,4.90
2018-03-08T07:20:47.891Z,5.00
2018-03-08T07:23:15.362Z,5.00
2018-03-08T07:25:42.820Z,5.00
2018-03-08T07:28:10.280Z,5.10
2018-03-08T07:30:37.744Z,5.10
2018-03-08T07:33:05.200Z,5.10
2018-03-08T07:35:33.442Z,5.30
2018-03-08T07:38:00.926Z,5.20
2018-03-08T07:40:28.379Z,5.40
2018-03-08T07:42:55.964Z,5.60
2018-03-08T07:45:23.436Z,5.80
2018-03-08T07:47:51.002Z,5.90
2018-03-08T07:50:18.478Z,6.00
2018-03-08T07:52:45.943Z,6.10
2018-03-08T07:55:13.409Z,6.10
2018-03-08T07:57:40.856Z,6.20
2018-03-08T08:00:08.321Z,6.10
2018-03-08T08:02:35.768Z,6.10
2018-03-08T08:05:15.217Z,6.20
2018-03-08T08:07:55.557Z,6.20
2018-03-08T08:10:23.111Z,6.20
2018-03-08T08:12:50.588Z,6.20
2018-03-08T08:15:18.052Z,6.20
2018-03-08T08:17:45.620Z,6.20
2018-03-08T08:20:13.096Z,6.40
2018-03-08T08:22:40.664Z,6.50
2018-03-08T08:25:08.116Z,6.50
2018-03-08T08:27:35.595Z,6.60
2018-03-08T08:30:03.068Z,6.70
2018-03-08T08:32:30.537Z,6.80
2018-03-08T08:34:57.993Z,6.80
2018-03-08T08:37:25.456Z,6.80
2018-03-08T08:39:52.928Z,6.90
2018-03-08T08:42:20.384Z,6.90
2018-03-08T08:44:47.840Z,7.00
2018-03-08T08:47:15.352Z,7.10
2018-03-08T08:49:42.928Z,7.00
2018-03-08T08:52:10.380Z,7.00
2018-03-08T08:54:37.931Z,7.10
2018-03-08T08:57:05.444Z,7.20
2018-03-08T08:59:32.908Z,7.40
2018-03-08T09:02:00.480Z,7.40
2018-03-08T09:04:27.941Z,7.40
2018-03-08T09:06:55.437Z,7.60
2018-03-08T09:09:22.900Z,7.60
2018-03-08T09:11:50.380Z,7.70
2018-03-08T09:14:17.899Z,7.80
2018-03-08T09:16:46.099Z,8.00
2018-03-08T09:19:13.573Z,8.00
2018-03-08T09:21:41.043Z,8.00
2018-03-08T09:24:08.517Z,8.10
2018-03-08T09:26:36.108Z,8.20
2018-03-08T09:29:03.629Z,8.50
2018-03-08T09:31:31.092Z,8.70
2018-03-08T09:33:58.611Z,9.00
2018-03-08T09:36:26.090Z,9.00
2018-03-08T09:38:53.568Z,9.20
2018-03-08T09:41:21.136Z,9.30
2018-03-08T09:43:48.645Z,9.40
2018-03-08T09:46:16.064Z,9.50
2018-03-08T09:48:43.536Z,9.40
2018-03-08T09:51:11.002Z,9.30
2018-03-08T09:53:38.468Z,9.40
2018-03-08T09:56:05.940Z,9.50
2018-03-08T09:58:33.395Z,9.50
2018-03-08T10:01:00.872Z,9.50
2018-03-08T10:03:28.447Z,9.60
2018-03-08T10:05:55.917Z,9.70
2018-03-08T10:08:23.489Z,9.90
2018-03-08T10:10:50.952Z,10.00
2018-03-08T10:13:18.424Z,10.20
2018-03-08T10:15:45.903Z,10.30
2018-03-08T10:18:13.371Z,10.20
2018-03-08T10:20:40.939Z,10.10
2018-03-08T10:23:08.396Z,10.10
2018-03-08T10:25:35.872Z,10.30
2018-03-08T10:28:03.358Z,10.40
2018-03-08T10:30:30.829Z,10.60
2018-03-08T10:32:58.305Z,10.70
2018-03-08T10:35:25.768Z,10.70
2018-03-08T10:37:53.248Z,10.60
2018-03-08T10:40:20.807Z,10.70
2018-03-08T10:42:48.276Z,10.90
2018-03-08T10:45:15.943Z,11.10
2018-03-08T10:47:43.411Z,10.80
2018-03-08T10:50:10.884Z,10.60
2018-03-08T10:52:38.351Z,10.40
2018-03-08T10:55:05.927Z,10.20
2018-03-08T10:57:33.388Z,10.10
2018-03-08T11:00:00.864Z,10.00
2018-03-08T11:02:34.073Z,10.10
2018-03-08T11:05:01.537Z,10.10
2018-03-08T11:07:28.996Z,10.00
2018-03-08T11:09:56.473Z,10.10
2018-03-08T11:12:23.924Z,10.20
2018-03-08T11:14:51.376Z,10.10
2018-03-08T11:17:18.839Z,10.00
2018-03-08T11:19:46.348Z,10.20
2018-03-08T11:22:13.923Z,10.20
2018-03-08T11:24:41.392Z,10.30
2018-03-08T11:27:08.871Z,10.40
2018-03-08T11:29:36.346Z,10.40
2018-03-08T11:32:03.907Z,10.40
2018-03-08T11:34:31.389Z,10.40
2018-03-08T11:36:58.865Z,10.60
2018-03-08T11:39:26.329Z,10.90
2018-03-08T11:41:53.792Z,11.00
2018-03-08T11:44:21.349Z,11.00
2018-03-08T11:46:48.809Z,11.10
2018-03-08T11:49:16.272Z,10.90
2018-03-08T11:51:43.744Z,10.90
2018-03-08T11:54:11.233Z,10.80
2018-03-08T11:56:38.690Z,10.80
2018-03-08T11:59:06.170Z,11.20
2018-03-08T12:01:33.740Z,12.10
2018-03-08T12:04:01.212Z,12.60
2018-03-08T12:06:28.676Z,12.50
2018-03-08T12:08:56.146Z,12.40
2018-03-08T12:11:23.732Z,12.10
2018-03-08T12:13:51.197Z,11.90
2018-03-08T12:16:18.648Z,11.60
2018-03-08T12:18:46.112Z,11.70
2018-03-08T12:21:13.591Z,11.40
2018-03-08T12:23:41.051Z,11.10
2018-03-08T12:26:08.509Z,11.10
2018-03-08T12:28:35.979Z,10.90
2018-03-08T12:31:03.443Z,10.80
2018-03-08T12:33:30.908Z,10.80
2018-03-08T12:35:58.380Z,10.70
2018-03-08T12:38:25.850Z,10.70
2018-03-08T12:40:53.316Z,10.80
2018-03-08T12:43:20.772Z,10.80
2018-03-08T12:45:48.484Z,10.70
2018-03-08T12:48:15.940Z,10.70
2018-03-08T12:50:43.408Z,10.70
2018-03-08T12:53:10.860Z,10.70
2018-03-08T12:55:38.324Z,10.70
2018-03-08T12:58:05.785Z,10.70
2018-03-08T13:00:34.009Z,10.50
2018-03-08T13:03:01.483Z,10.50
2018-03-08T13:05:28.972Z,10.50
2018-03-08T13:07:56.436Z,10.50
2018-03-08T13:10:23.913Z,10.60
2018-03-08T13:12:51.388Z,10.50
2018-03-08T13:15:18.849Z,10.50
2018-03-08T13:17:46.320Z,10.40
2018-03-08T13:20:13.772Z,10.20
2018-03-08T13:22:41.229Z,9.90
2018-03-08T13:25:08.685Z,9.80
2018-03-08T13:27:36.136Z,9.40
2018-03-08T13:30:04.362Z,9.20
2018-03-08T13:32:31.825Z,9.10
2018-03-08T13:34:59.276Z,8.90
2018-03-08T13:37:26.736Z,8.70
2018-03-08T13:39:54.188Z,8.50
2018-03-08T13:42:22.403Z,8.10
2018-03-08T13:44:49.897Z,8.10
2018-03-08T13:47:17.344Z,8.00
2018-03-08T13:49:44.804Z,7.90
2018-03-08T13:52:13.026Z,7.70
2018-03-08T13:54:40.478Z,7.60
2018-03-08T13:57:07.940Z,7.60
2018-03-08T13:59:35.404Z,7.50
2018-03-08T14:02:02.860Z,7.40
2018-03-08T14:04:31.080Z,7.30
2018-03-08T14:06:58.532Z,7.30
2018-03-08T14:09:25.988Z,7.30
2018-03-08T14:11:54.209Z,7.30
2018-03-08T14:14:21.660Z,7.30
2018-03-08T14:16:49.127Z,7.30
2018-03-08T14:19:16.590Z,7.30
2018-03-08T14:21:44.046Z,7.30
2018-03-08T14:24:11.511Z,7.40
2018-03-08T14:26:39.744Z,7.30
2018-03-08T14:29:07.214Z,7.30
2018-03-08T14:31:34.720Z,7.30
2018-03-08T14:34:02.176Z,7.30
2018-03-08T14:36:29.632Z,7.30
2018-03-08T14:38:57.084Z,7.20
2018-03-08T14:41:24.557Z,7.20
2018-03-08T14:43:52.008Z,7.10
2018-03-08T14:46:19.452Z,7.10
2018-03-08T14:48:47.683Z,7.00
2018-03-08T14:51:15.140Z,7.00
2018-03-08T14:53:42.612Z,7.10
2018-03-08T14:56:10.057Z,7.10
2018-03-08T14:58:38.285Z,7.10
2018-03-08T15:01:05.758Z,7.10
2018-03-08T15:03:33.206Z,7.10
2018-03-08T15:06:00.662Z,7.10
2018-03-08T15:08:28.117Z,7.00
2018-03-08T15:10:56.347Z,7.10
2018-03-08T15:13:23.799Z,7.00
2018-03-08T15:15:51.264Z,7.00
2018-03-08T15:18:18.708Z,7.00
2018-03-08T15:20:46.932Z,7.10
2018-03-08T15:23:14.384Z,7.10
2018-03-08T15:25:41.863Z,7.10
2018-03-08T15:28:09.328Z,7.20
2018-03-08T15:30:36.783Z,7.20
2018-03-08T15:33:05.008Z,7.20
2018-03-08T15:35:32.456Z,7.20
2018-03-08T15:37:59.962Z,7.30
2018-03-08T15:40:27.421Z,7.20
2018-03-08T15:42:54.427Z,7.20
2018-03-08T15:45:22.663Z,7.10
2018-03-08T15:47:49.668Z,7.10
2018-03-08T15:50:17.467Z,7.00
2018-03-08T15:52:44.471Z,6.90
2018-03-08T16:00:53.832Z,6.90
2018-03-08T16:03:20.842Z,6.80
2018-03-08T16:05:47.844Z,6.70
2018-03-08T16:08:30.503Z,6.80
2018-03-08T16:10:57.609Z,6.80
2018-03-08T16:13:24.636Z,6.80
2018-03-08T16:15:51.648Z,6.80
2018-03-08T16:18:19.448Z,6.80
2018-03-08T16:20:47.209Z,6.80
2018-03-08T16:23:15.000Z,6.80
2018-03-08T16:25:42.007Z,6.80
2018-03-08T16:28:09.007Z,6.80
2018-03-08T16:30:36.024Z,6.80
2018-03-08T16:33:03.036Z,6.80
2018-03-08T16:35:30.047Z,6.80
2018-03-08T16:37:57.063Z,6.60
2018-03-08T16:40:24.087Z,5.80
2018-03-08T16:42:51.859Z,4.80
2018-03-08T16:45:20.081Z,4.50
2018-03-08T16:47:47.540Z,4.50
2018-03-08T16:50:14.989Z,4.70
2018-03-08T16:52:42.759Z,5.00
2018-03-08T16:55:10.542Z,5.10
2018-03-08T16:57:38.349Z,5.10
2018-03-08T17:00:05.385Z,5.10
2018-03-08T17:02:33.156Z,5.00
2018-03-08T17:05:00.198Z,5.00
2018-03-08T17:07:27.996Z,5.10
2018-03-08T17:09:55.788Z,5.10
2018-03-08T17:12:22.792Z,5.10
2018-03-08T17:14:49.813Z,5.00
2018-03-08T17:17:16.820Z,5.00
2018-03-08T17:19:43.835Z,5.00
2018-03-08T17:22:10.847Z,5.00
2018-03-08T17:24:37.860Z,5.00
2018-03-08T17:27:04.880Z,5.00
2018-03-08T17:29:32.656Z,5.00
2018-03-08T17:32:00.431Z,5.00
2018-03-08T17:34:28.254Z,5.00
2018-03-08T17:36:56.003Z,5.00
2018-03-08T17:39:23.027Z,5.00
2018-03-08T17:41:50.039Z,5.00
2018-03-08T17:44:17.052Z,5.00
2018-03-08T17:46:44.827Z,5.00
2018-03-08T17:49:11.835Z,5.00
2018-03-08T17:51:38.860Z,5.10
2018-03-08T17:54:06.644Z,5.00
2018-03-08T17:56:34.420Z,5.00
2018-03-08T17:59:02.215Z,5.00
2018-03-08T18:01:29.231Z,5.00
2018-03-08T18:03:56.247Z,5.10
2018-03-08T18:06:23.259Z,5.10
2018-03-08T18:08:51.039Z,5.20
2018-03-08T18:11:18.818Z,5.20
2018-03-08T18:13:46.609Z,5.30
2018-03-08T18:16:13.612Z,5.20
2018-03-08T18:18:40.619Z,5.20
2018-03-08T18:21:08.401Z,5.30
2018-03-08T18:23:35.418Z,5.30
2018-03-08T18:26:02.432Z,5.40
2018-03-08T18:28:29.439Z,5.40
2018-03-08T18:30:56.455Z,5.40
2018-03-08T18:33:23.467Z,5.30
2018-03-08T18:35:50.508Z,5.10
2018-03-08T18:38:17.524Z,4.70
2018-03-08T18:40:44.540Z,4.40
2018-03-08T18:43:11.547Z,4.20
2018-03-08T18:45:38.563Z,4.10
2018-03-08T18:48:05.571Z,4.00
2018-03-08T18:50:32.579Z,4.00
2018-03-08T18:52:59.601Z,4.00
2018-03-08T18:55:26.614Z,4.10
2018-03-08T18:57:54.491Z,4.10
2018-03-08T19:00:22.268Z,4.10
2018-03-08T19:02:50.044Z,4.10
2018-03-08T19:05:17.857Z,4.00
2018-03-08T19:07:45.688Z,4.00
2018-03-08T19:10:12.692Z,4.00
2018-03-08T19:12:39.704Z,4.10
2018-03-08T19:15:06.730Z,4.10
2018-03-08T19:17:34.508Z,4.20
2018-03-08T19:20:01.540Z,4.10
2018-03-08T19:22:28.566Z,4.20
2018-03-08T19:24:56.343Z,4.30
2018-03-08T19:27:24.123Z,4.30
2018-03-08T19:29:51.903Z,4.40
2018-03-08T19:32:19.696Z,4.40
2018-03-08T19:34:46.697Z,4.40
2018-03-08T19:37:13.713Z,4.40
2018-03-08T19:39:40.756Z,4.50
2018-03-08T19:42:08.535Z,4.60
2018-03-08T19:44:36.311Z,4.60
2018-03-08T19:47:04.087Z,4.70
2018-03-08T19:49:31.860Z,4.70
2018-03-08T19:51:59.644Z,4.70
2018-03-08T19:54:27.416Z,4.80
2018-03-08T19:56:55.199Z,4.80
2018-03-08T19:59:22.964Z,4.80
2018-03-08T20:01:50.761Z,4.90
2018-03-08T20:04:18.556Z,4.90
2018-03-08T20:06:45.572Z,4.80
2018-03-08T20:09:12.593Z,4.80
2018-03-08T20:11:39.600Z,4.90
2018-03-08T20:14:07.370Z,5.00
2018-03-08T20:16:35.243Z,5.00
2018-03-08T20:19:02.304Z,5.00
2018-03-08T20:21:29.314Z,5.00
2018-03-08T20:23:56.418Z,5.00
2018-03-08T20:26:23.428Z,5.10
2018-03-08T20:28:50.447Z,5.10
2018-03-08T20:31:17.463Z,5.10
2018-03-08T20:33:44.559Z,5.10
2018-03-08T20:36:11.623Z,5.10
2018-03-08T20:38:39.504Z,5.00
2018-03-08T20:41:06.507Z,5.00
2018-03-08T20:43:33.611Z,5.00
2018-03-08T20:46:00.627Z,5.00
2018-03-08T20:48:27.653Z,5.00
2018-03-08T20:50:55.428Z,4.90
2018-03-08T20:53:23.219Z,4.90
2018-03-08T20:55:50.235Z,4.90
2018-03-08T20:58:17.279Z,4.90
2018-03-08T21:00:44.288Z,4.80
2018-03-08T21:03:12.056Z,4.70
2018-03-08T21:05:39.847Z,4.70
2018-03-08T21:08:06.867Z,4.70
2018-03-08T21:10:33.934Z,4.70
2018-03-08T21:13:00.965Z,4.70
2018-03-08T21:15:28.047Z,4.60
2018-03-08T21:17:55.089Z,4.60
2018-03-08T21:20:24.911Z,4.50
2018-03-08T21:22:51.924Z,4.50
2018-03-08T21:25:19.771Z,4.50
2018-03-08T21:27:46.792Z,4.50
2018-03-08T21:30:13.796Z,4.50
2018-03-08T21:32:40.851Z,4.50
2018-03-08T21:35:08.627Z,4.40
2018-03-08T21:37:35.694Z,4.40
2018-03-08T21:40:03.473Z,4.30
2018-03-08T21:42:31.256Z,4.30
2018-03-08T21:44:59.127Z,4.30
2018-03-08T21:47:27.007Z,4.30
2018-03-08T21:49:54.883Z,4.30
2018-03-08T21:52:21.886Z,4.30
2018-03-08T21:54:49.003Z,4.40
2018-03-08T21:57:16.019Z,4.30
2018-03-08T21:59:43.123Z,4.30
2018-03-08T22:02:10.175Z,4.30
2018-03-08T22:04:37.186Z,4.30
2018-03-08T22:07:04.404Z,4.30
2018-03-08T22:09:31.411Z,4.30
2018-03-08T22:12:00.019Z,4.30
2018-03-08T22:14:27.116Z,4.30
2018-03-08T22:16:54.128Z,4.30
2018-03-08T22:19:21.147Z,4.30
2018-03-08T22:21:48.927Z,4.30
2018-03-08T22:24:16.703Z,4.30
2018-03-08T22:26:44.480Z,4.30
2018-03-08T22:29:12.263Z,4.30
2018-03-08T22:31:40.036Z,4.30
2018-03-08T22:34:07.820Z,4.30
2018-03-08T22:36:35.667Z,4.30
2018-03-08T22:39:02.698Z,4.30
2018-03-08T22:41:29.699Z,4.30
2018-03-08T22:43:57.571Z,4.20
2018-03-08T22:46:25.356Z,4.20
2018-03-08T22:48:53.139Z,4.20
2018-03-08T22:51:20.919Z,4.20
2018-03-08T22:53:48.691Z,4.20
2018-03-08T22:56:16.463Z,4.20
2018-03-08T22:58:44.261Z,4.20
2018-03-08T23:01:26.145Z,4.20
2018-03-08T23:03:53.163Z,4.10
2018-03-08T23:06:20.187Z,4.10
2018-03-08T23:08:47.195Z,4.10
2018-03-08T23:11:14.199Z,4.10
2018-03-08T23:13:41.227Z,4.00
2018-03-08T23:16:08.236Z,4.00
2018-03-08T23:18:35.352Z,4.00
2018-03-08T23:21:02.383Z,4.00
2018-03-08T23:23:29.398Z,4.00
2018-03-08T23:25:57.218Z,4.10
2018-03-08T23:28:24.303Z,4.00
2018-03-08T23:30:51.344Z,4.00
2018-03-08T23:33:18.363Z,4.00
2018-03-08T23:35:45.368Z,4.00
2018-03-08T23:38:12.383Z,4.00
2018-03-08T23:40:39.391Z,4.00
2018-03-08T23:43:06.421Z,4.00
2018-03-08T23:45:33.428Z,3.90
2018-03-08T23:48:01.200Z,3.90
2018-03-08T23:50:28.251Z,3.90
2018-03-08T23:52:55.320Z,3.90
2018-03-08T23:55:22.343Z,3.90
2018-03-08T23:57:49.359Z,3.80
